createdAt,value
2022-08-19T00:00:28.678Z,23.33
2022-08-19T00:02:02.772Z,23.37
2022-08-19T00:03:34.402Z,23.34
2022-08-19T00:05:06.160Z,23.29
2022-08-19T00:06:38.063Z,23.28
2022-08-19T00:08:09.736Z,23.25
2022-08-19T00:09:41.667Z,23.21
2022-08-19T00:11:18.730Z,23.21
2022-08-19T00:12:57.640Z,23.15
2022-08-19T00:14:32.759Z,23.11
2022-08-19T00:16:04.682Z,23.04
2022-08-19T00:17:36.223Z,23.01
2022-08-19T00:19:13.766Z,23.02
2022-08-19T00:20:45.380Z,23.01
2022-08-19T00:22:18.496Z,23.07
2022-08-19T00:23:51.326Z,23.11
2022-08-19T00:25:29.960Z,23.14
2022-08-19T00:27:25.910Z,23.12
2022-08-19T00:28:54.799Z,23.10
2022-08-19T00:30:28.591Z,23.05
2022-08-19T00:32:01.072Z,23.01
2022-08-19T00:33:35.964Z,22.98
2022-08-19T00:35:07.941Z,22.93
2022-08-19T00:36:40.391Z,22.89
2022-08-19T00:38:11.942Z,22.85
2022-08-19T00:39:43.628Z,22.80
2022-08-19T00:41:15.772Z,22.74
2022-08-19T00:42:47.576Z,22.71
2022-08-19T00:44:26.902Z,22.73
2022-08-19T00:45:58.945Z,22.77
2022-08-19T00:47:30.539Z,22.80
2022-08-19T00:49:03.363Z,22.84
2022-08-19T00:50:35.033Z,22.89
2022-08-19T00:52:10.395Z,22.93
2022-08-19T00:53:42.030Z,22.96
2022-08-19T00:55:14.383Z,22.98
2022-08-19T00:56:46.811Z,23.00
2022-08-19T00:58:19.040Z,23.01
2022-08-19T00:59:53.466Z,22.98
2022-08-19T01:01:33.783Z,22.94
2022-08-19T01:03:09.268Z,22.93
2022-08-19T01:04:41.239Z,22.96
2022-08-19T01:06:12.784Z,22.93
2022-08-19T01:07:44.453Z,22.90
2022-08-19T01:09:16.249Z,22.89
2022-08-19T01:10:49.111Z,22.83
2022-08-19T01:12:23.844Z,22.78
2022-08-19T01:13:55.532Z,22.71
2022-08-19T01:15:28.337Z,22.64
2022-08-19T01:17:01.226Z,22.57
2022-08-19T01:18:33.052Z,22.51
2022-08-19T01:20:05.138Z,22.46
2022-08-19T01:21:41.829Z,22.43
2022-08-19T01:23:13.703Z,22.33
2022-08-19T01:24:49.537Z,22.25
2022-08-19T01:26:23.661Z,22.19
2022-08-19T01:27:55.484Z,22.14
2022-08-19T01:29:33.278Z,22.09
2022-08-19T01:31:07.948Z,22.04
2022-08-19T01:32:40.463Z,22.04
2022-08-19T01:34:12.216Z,22.03
2022-08-19T01:35:43.765Z,22.00
2022-08-19T01:37:15.528Z,22.01
2022-08-19T01:38:56.803Z,22.04
2022-08-19T01:40:30.342Z,22.01
2022-08-19T01:42:04.534Z,21.95
2022-08-19T01:43:36.771Z,21.90
2022-08-19T01:45:08.798Z,21.82
2022-08-19T01:46:40.473Z,21.77
2022-08-19T01:48:12.670Z,21.72
2022-08-19T01:49:44.314Z,21.68
2022-08-19T01:51:16.267Z,21.63
2022-08-19T01:52:47.974Z,21.61
2022-08-19T01:54:34.977Z,21.60
2022-08-19T01:56:07.083Z,21.57
2022-08-19T01:57:39.157Z,21.51
2022-08-19T01:59:15.172Z,21.43
2022-08-19T02:00:47.652Z,21.35
2022-08-19T02:02:19.347Z,21.31
2022-08-19T02:03:51.207Z,21.24
2022-08-19T02:05:22.822Z,21.21
2022-08-19T02:06:54.794Z,21.16
2022-08-19T02:08:27.235Z,21.16
2022-08-19T02:09:59.173Z,21.15
2022-08-19T02:11:35.130Z,21.17
2022-08-19T02:13:06.721Z,21.17
2022-08-19T02:14:38.687Z,21.19
2022-08-19T02:16:11.147Z,21.20
2022-08-19T02:17:43.060Z,21.22
2022-08-19T02:19:14.627Z,21.20
2022-08-19T02:20:48.223Z,21.17
2022-08-19T02:22:20.662Z,21.13
2022-08-19T02:23:52.278Z,21.09
2022-08-19T02:25:23.890Z,21.06
2022-08-19T02:26:55.402Z,21.04
2022-08-19T02:28:27.536Z,21.01
2022-08-19T02:29:59.354Z,21.00
2022-08-19T02:31:31.179Z,21.02
2022-08-19T02:33:03.107Z,21.02
2022-08-19T02:34:34.978Z,21.02
2022-08-19T02:36:07.362Z,21.04
2022-08-19T02:38:08.663Z,21.03
2022-08-19T02:39:40.328Z,21.02
2022-08-19T02:41:18.973Z,21.04
2022-08-19T02:42:50.471Z,21.06
2022-08-19T02:44:31.296Z,21.11
2022-08-19T02:46:11.847Z,21.13
2022-08-19T02:47:43.865Z,21.16
2022-08-19T02:49:17.619Z,21.17
2022-08-19T02:50:54.502Z,21.14
2022-08-19T02:52:26.534Z,21.10
2022-08-19T02:53:58.115Z,21.05
2022-08-19T02:55:29.933Z,21.05
2022-08-19T02:57:02.027Z,21.05
2022-08-19T02:58:33.559Z,21.03
2022-08-19T03:00:06.341Z,21.05
2022-08-19T03:01:38.027Z,21.03
2022-08-19T03:03:09.661Z,20.98
2022-08-19T03:04:41.329Z,20.97
2022-08-19T03:06:14.114Z,20.96
2022-08-19T03:07:46.634Z,20.94
2022-08-19T03:09:19.384Z,20.89
2022-08-19T03:10:52.987Z,20.82
2022-08-19T03:12:25.032Z,20.81
2022-08-19T03:13:56.652Z,20.80
2022-08-19T03:15:28.354Z,20.75
2022-08-19T03:17:00.025Z,20.68
2022-08-19T03:18:31.650Z,20.62
2022-08-19T03:20:04.210Z,20.57
2022-08-19T03:21:36.069Z,20.53
2022-08-19T03:23:07.632Z,20.48
2022-08-19T03:24:40.158Z,20.44
2022-08-19T03:26:16.044Z,20.39
2022-08-19T03:27:50.715Z,20.37
2022-08-19T03:29:30.121Z,20.40
2022-08-19T03:31:03.765Z,20.41
2022-08-19T03:32:35.678Z,20.39
2022-08-19T03:34:18.946Z,20.38
2022-08-19T03:36:00.739Z,20.35
2022-08-19T03:37:32.382Z,20.30
2022-08-19T03:39:03.955Z,20.26
2022-08-19T03:40:37.689Z,20.22
2022-08-19T03:42:38.594Z,20.22
2022-08-19T03:44:01.161Z,20.22
2022-08-19T03:45:32.758Z,20.22
2022-08-19T03:47:05.013Z,20.19
2022-08-19T03:48:36.862Z,20.17
2022-08-19T03:50:09.870Z,20.17
2022-08-19T03:51:41.762Z,20.20
2022-08-19T03:53:13.352Z,20.21
2022-08-19T03:54:45.080Z,20.17
2022-08-19T03:56:16.633Z,20.15
2022-08-19T03:57:49.752Z,20.14
2022-08-19T03:59:23.583Z,20.14
2022-08-19T04:00:56.337Z,20.15
2022-08-19T04:02:28.056Z,20.17
2022-08-19T04:03:59.855Z,20.19
2022-08-19T04:05:31.408Z,20.20
2022-08-19T04:07:03.217Z,20.19
2022-08-19T04:08:34.762Z,20.18
2022-08-19T04:10:06.495Z,20.17
2022-08-19T04:11:44.827Z,20.17
2022-08-19T04:13:17.182Z,20.17
2022-08-19T04:14:49.100Z,20.17
2022-08-19T04:16:21.300Z,20.18
2022-08-19T04:18:03.358Z,20.19
2022-08-19T04:19:35.515Z,20.20
2022-08-19T04:21:07.515Z,20.23
2022-08-19T04:22:39.151Z,20.27
2022-08-19T04:24:10.751Z,20.35
2022-08-19T04:25:43.482Z,20.39
2022-08-19T04:27:15.446Z,20.43
2022-08-19T04:28:47.213Z,20.45
2022-08-19T04:30:19.186Z,20.51
2022-08-19T04:31:50.866Z,20.57
2022-08-19T04:33:26.706Z,20.69
2022-08-19T04:35:02.575Z,20.81
2022-08-19T04:36:51.946Z,20.91
2022-08-19T04:38:26.314Z,20.93
2022-08-19T04:40:16.592Z,20.93
2022-08-19T04:42:08.667Z,20.96
2022-08-19T04:43:40.494Z,21.00
2022-08-19T04:45:13.346Z,21.05
2022-08-19T04:46:51.357Z,21.00
2022-08-19T04:48:29.537Z,20.97
2022-08-19T04:50:01.336Z,20.95
2022-08-19T04:51:33.674Z,21.00
2022-08-19T04:53:06.377Z,21.08
2022-08-19T04:54:39.352Z,21.12
2022-08-19T04:56:12.454Z,21.12
2022-08-19T04:57:44.087Z,21.11
2022-08-19T04:59:17.162Z,21.15
2022-08-19T05:00:49.297Z,21.23
2022-08-19T05:02:20.940Z,21.33
2022-08-19T05:03:53.345Z,21.44
2022-08-19T05:05:24.936Z,21.57
2022-08-19T05:07:00.066Z,21.67
2022-08-19T05:08:32.928Z,21.76
2022-08-19T05:10:06.051Z,21.86
2022-08-19T05:11:39.847Z,21.95
2022-08-19T05:13:12.419Z,22.03
2022-08-19T05:14:44.446Z,22.15
2022-08-19T05:16:16.745Z,22.26
2022-08-19T05:18:08.257Z,22.35
2022-08-19T05:19:58.616Z,22.48
2022-08-19T05:21:48.808Z,22.59
2022-08-19T05:23:22.778Z,22.71
2022-08-19T05:25:11.587Z,22.83
2022-08-19T05:26:47.715Z,22.96
2022-08-19T05:28:20.212Z,23.08
2022-08-19T05:29:51.843Z,23.17
2022-08-19T05:31:23.515Z,23.27
2022-08-19T05:32:57.105Z,23.38
2022-08-19T05:34:28.974Z,23.46
2022-08-19T05:36:00.636Z,23.57
2022-08-19T05:37:32.267Z,23.65
2022-08-19T05:39:04.277Z,23.71
2022-08-19T05:40:37.229Z,23.79
2022-08-19T05:42:09.981Z,23.88
2022-08-19T05:43:41.687Z,23.94
2022-08-19T05:45:13.814Z,23.98
2022-08-19T05:46:48.034Z,24.05
2022-08-19T05:48:21.604Z,24.12
2022-08-19T05:49:53.319Z,24.14
2022-08-19T05:51:28.974Z,24.13
2022-08-19T05:53:01.021Z,24.17
2022-08-19T05:54:33.393Z,24.22
2022-08-19T05:56:08.695Z,24.24
2022-08-19T05:57:40.648Z,24.26
2022-08-19T05:59:12.880Z,24.35
2022-08-19T06:00:44.799Z,24.47
2022-08-19T06:02:16.501Z,24.53
2022-08-19T06:03:48.798Z,24.52
2022-08-19T06:05:21.261Z,24.48
2022-08-19T06:06:53.782Z,24.49
2022-08-19T06:08:34.458Z,24.60
2022-08-19T06:10:07.697Z,24.64
2022-08-19T06:11:44.623Z,24.67
2022-08-19T06:13:16.363Z,24.76
2022-08-19T06:14:47.979Z,24.80
2022-08-19T06:16:33.337Z,24.96
2022-08-19T06:18:05.330Z,25.01
2022-08-19T06:19:40.836Z,25.04
2022-08-19T06:21:13.218Z,25.17
2022-08-19T06:22:46.647Z,25.31
2022-08-19T06:24:19.479Z,25.52
2022-08-19T06:25:51.346Z,25.68
2022-08-19T06:27:23.098Z,25.78
2022-08-19T06:28:55.114Z,25.86
2022-08-19T06:30:26.904Z,25.90
2022-08-19T06:31:59.228Z,25.97
2022-08-19T06:33:31.375Z,26.12
2022-08-19T06:35:03.755Z,26.31
2022-08-19T06:36:36.758Z,26.44
2022-08-19T06:38:08.632Z,26.56
2022-08-19T06:39:41.063Z,26.63
2022-08-19T06:41:13.084Z,26.67
2022-08-19T06:42:54.313Z,26.68
2022-08-19T06:44:27.881Z,26.65
2022-08-19T06:46:00.511Z,26.66
2022-08-19T06:47:37.597Z,26.65
2022-08-19T06:49:12.729Z,26.72
2022-08-19T06:50:44.527Z,26.87
2022-08-19T06:52:17.424Z,27.05
2022-08-19T06:55:26.876Z,27.29
2022-08-19T06:56:59.592Z,27.42
2022-08-19T06:58:34.334Z,27.55
2022-08-19T07:00:12.255Z,27.69
2022-08-19T07:01:47.689Z,27.83
2022-08-19T07:03:19.865Z,27.90
2022-08-19T07:04:52.721Z,27.94
2022-08-19T07:06:43.484Z,28.01
2022-08-19T07:08:17.010Z,28.24
2022-08-19T07:09:52.205Z,28.42
2022-08-19T07:11:32.450Z,28.61
2022-08-19T07:13:07.169Z,28.83
2022-08-19T07:14:39.157Z,29.02
2022-08-19T07:16:12.758Z,29.13
2022-08-19T07:17:45.343Z,29.19
2022-08-19T07:19:20.214Z,29.33
2022-08-19T07:20:52.098Z,29.46
2022-08-19T07:22:24.580Z,29.62
2022-08-19T07:23:57.801Z,29.74
2022-08-19T07:25:32.151Z,29.87
2022-08-19T07:27:10.321Z,29.93
2022-08-19T07:28:51.460Z,30.08
2022-08-19T07:30:26.202Z,30.14
2022-08-19T07:32:00.124Z,30.08
2022-08-19T07:33:33.920Z,30.06
2022-08-19T07:35:07.056Z,30.05
2022-08-19T07:36:39.464Z,30.08
2022-08-19T07:38:11.999Z,30.20
2022-08-19T07:39:44.214Z,30.25
2022-08-19T07:41:18.206Z,30.30
2022-08-19T07:42:49.888Z,30.44
2022-08-19T07:44:21.749Z,30.51
2022-08-19T07:45:54.427Z,30.49
2022-08-19T07:47:49.961Z,30.48
2022-08-19T07:49:21.411Z,30.44
2022-08-19T07:50:54.238Z,30.42
2022-08-19T07:52:25.959Z,30.44
2022-08-19T07:53:57.707Z,30.41
2022-08-19T07:55:41.225Z,30.35
2022-08-19T07:57:15.760Z,30.42
2022-08-19T07:58:48.409Z,30.31
2022-08-19T08:00:23.201Z,30.19
2022-08-19T08:01:56.590Z,30.13
2022-08-19T08:03:46.971Z,30.11
2022-08-19T08:05:39.665Z,30.07
2022-08-19T08:07:33.216Z,30.23
2022-08-19T08:09:17.166Z,30.39
2022-08-19T08:10:54.620Z,30.52
2022-08-19T08:12:34.790Z,30.63
2022-08-19T08:14:07.367Z,30.75
2022-08-19T08:15:58.941Z,30.95
2022-08-19T08:17:49.691Z,31.18
2022-08-19T08:19:25.569Z,31.27
2022-08-19T08:20:57.709Z,31.47
2022-08-19T08:22:47.914Z,31.67
2022-08-19T08:24:19.944Z,31.78
2022-08-19T08:25:52.006Z,31.81
2022-08-19T08:27:26.421Z,31.83
2022-08-19T08:28:59.035Z,32.00
2022-08-19T08:30:31.418Z,32.17
2022-08-19T08:32:14.939Z,32.23
2022-08-19T08:33:46.953Z,32.41
2022-08-19T08:35:19.921Z,32.62
2022-08-19T08:36:53.330Z,32.75
2022-08-19T08:38:25.114Z,32.84
2022-08-19T08:39:59.992Z,32.87
2022-08-19T08:41:34.194Z,33.01
2022-08-19T08:43:19.893Z,33.17
2022-08-19T08:46:34.562Z,33.43
2022-08-19T08:48:23.857Z,33.63
2022-08-19T08:49:57.557Z,33.86
2022-08-19T08:51:34.846Z,33.86
2022-08-19T08:53:06.997Z,33.94
2022-08-19T08:54:41.129Z,34.05
2022-08-19T08:56:26.826Z,34.18
2022-08-19T08:58:02.842Z,34.20
2022-08-19T08:59:35.930Z,34.30
2022-08-19T09:01:07.602Z,34.36
2022-08-19T09:02:39.443Z,34.44
2022-08-19T09:04:15.699Z,34.61
2022-08-19T09:05:51.842Z,34.70
2022-08-19T09:07:34.952Z,34.78
2022-08-19T09:09:14.906Z,34.88
2022-08-19T09:10:55.077Z,34.85
2022-08-19T09:12:32.347Z,34.62
2022-08-19T09:14:34.912Z,34.49
2022-08-19T09:16:09.139Z,34.59
2022-08-19T09:17:41.026Z,34.72
2022-08-19T09:19:13.139Z,34.82
2022-08-19T09:20:45.487Z,34.88
2022-08-19T09:22:23.582Z,34.94
2022-08-19T09:23:58.884Z,35.06
2022-08-19T09:25:33.088Z,35.07
2022-08-19T09:27:18.386Z,35.08
2022-08-19T09:28:51.665Z,35.03
2022-08-19T09:30:29.826Z,35.14
2022-08-19T09:32:03.120Z,35.08
2022-08-19T09:33:34.717Z,34.95
2022-08-19T09:35:08.831Z,34.99
2022-08-19T09:36:42.041Z,35.14
2022-08-19T09:38:13.956Z,35.24
2022-08-19T09:39:46.151Z,35.38
2022-08-19T09:41:19.130Z,35.56
2022-08-19T09:42:52.667Z,35.63
2022-08-19T09:44:25.502Z,35.62
2022-08-19T09:45:59.043Z,35.72
2022-08-19T09:47:30.621Z,35.80
2022-08-19T09:49:06.592Z,35.90
2022-08-19T09:50:51.585Z,35.92
2022-08-19T09:52:24.295Z,36.05
2022-08-19T09:53:57.997Z,36.19
2022-08-19T09:55:31.501Z,36.25
2022-08-19T09:57:05.099Z,36.15
2022-08-19T09:58:39.592Z,36.18
2022-08-19T10:00:11.848Z,35.94
2022-08-19T10:01:43.842Z,35.86
2022-08-19T10:03:18.216Z,35.79
2022-08-19T10:05:09.157Z,35.61
2022-08-19T10:06:46.911Z,35.37
2022-08-19T10:08:20.664Z,35.23
2022-08-19T10:09:54.042Z,35.12
2022-08-19T10:11:40.048Z,35.03
2022-08-19T10:13:15.016Z,35.01
2022-08-19T10:14:47.908Z,34.92
2022-08-19T10:16:22.978Z,34.80
2022-08-19T10:18:00.464Z,34.80
2022-08-19T10:19:39.024Z,34.82
2022-08-19T10:21:14.129Z,34.86
2022-08-19T10:22:51.878Z,34.98
2022-08-19T10:24:30.759Z,35.12
2022-08-19T10:26:09.307Z,35.31
2022-08-19T10:27:48.233Z,35.41
2022-08-19T10:29:32.049Z,35.52
2022-08-19T10:31:13.703Z,35.73
2022-08-19T10:32:50.732Z,35.82
2022-08-19T10:34:27.853Z,35.79
2022-08-19T10:36:01.105Z,35.62
2022-08-19T10:37:34.062Z,35.58
2022-08-19T10:39:08.840Z,35.61
2022-08-19T10:40:43.953Z,35.64
2022-08-19T10:42:18.554Z,35.72
2022-08-19T10:43:55.782Z,35.67
2022-08-19T10:45:28.899Z,35.58
2022-08-19T10:47:03.454Z,35.57
2022-08-19T10:48:36.113Z,35.77
2022-08-19T10:50:29.106Z,36.02
2022-08-19T10:52:21.990Z,36.31
2022-08-19T10:53:55.777Z,36.35
2022-08-19T10:55:49.156Z,36.28
2022-08-19T10:57:20.896Z,36.10
2022-08-19T10:59:01.177Z,36.13
2022-08-19T11:00:35.053Z,36.15
2022-08-19T11:02:14.916Z,36.17
2022-08-19T11:03:49.007Z,36.08
2022-08-19T11:05:21.251Z,35.96
2022-08-19T11:06:58.743Z,36.09
2022-08-19T11:08:34.344Z,36.23
2022-08-19T11:10:12.946Z,36.22
2022-08-19T11:11:44.899Z,36.42
2022-08-19T11:13:20.045Z,36.60
2022-08-19T11:14:54.438Z,36.76
2022-08-19T11:16:29.058Z,36.89
2022-08-19T11:18:00.871Z,37.07
2022-08-19T11:19:38.960Z,37.17
2022-08-19T11:21:14.900Z,37.32
2022-08-19T11:22:55.690Z,37.51
2022-08-19T11:24:29.627Z,37.56
2022-08-19T11:26:04.769Z,37.56
2022-08-19T11:27:40.766Z,37.63
2022-08-19T11:29:15.139Z,37.59
2022-08-19T11:30:50.321Z,37.58
2022-08-19T11:32:23.959Z,37.65
2022-08-19T11:33:59.335Z,37.78
2022-08-19T11:35:33.531Z,37.89
2022-08-19T11:37:05.734Z,37.93
2022-08-19T11:38:40.248Z,37.92
2022-08-19T11:40:18.972Z,37.91
2022-08-19T11:41:51.165Z,37.95
2022-08-19T11:43:23.352Z,37.96
2022-08-19T11:44:55.109Z,37.98
2022-08-19T11:46:27.405Z,38.08
2022-08-19T11:47:59.441Z,38.14
2022-08-19T11:49:31.084Z,38.21
2022-08-19T11:51:06.654Z,38.29
2022-08-19T11:52:38.470Z,38.34
2022-08-19T11:54:10.789Z,38.35
2022-08-19T11:55:44.257Z,38.43
2022-08-19T11:57:18.055Z,38.46
2022-08-19T11:58:50.234Z,38.59
2022-08-19T12:00:22.885Z,38.68
2022-08-19T12:01:54.674Z,38.70
2022-08-19T12:03:26.586Z,38.77
2022-08-19T12:04:58.689Z,38.82
2022-08-19T12:06:31.780Z,38.91
2022-08-19T12:08:03.601Z,38.97
2022-08-19T12:09:35.672Z,38.98
2022-08-19T12:11:09.015Z,38.90
2022-08-19T12:12:43.722Z,38.51
2022-08-19T12:14:17.780Z,38.21
2022-08-19T12:15:51.521Z,38.05
2022-08-19T12:17:27.167Z,38.01
2022-08-19T12:19:00.161Z,38.13
2022-08-19T12:20:31.860Z,38.24
2022-08-19T12:22:08.697Z,38.38
2022-08-19T12:23:41.848Z,38.56
2022-08-19T12:25:13.797Z,38.72
2022-08-19T12:26:53.548Z,38.81
2022-08-19T12:28:25.949Z,38.75
2022-08-19T12:29:58.344Z,38.50
2022-08-19T12:31:30.128Z,38.26
2022-08-19T12:33:01.815Z,38.01
2022-08-19T12:34:33.633Z,37.99
2022-08-19T12:36:06.692Z,38.14
2022-08-19T12:37:38.765Z,38.18
2022-08-19T12:39:10.760Z,38.23
2022-08-19T12:40:48.583Z,38.34
2022-08-19T12:42:21.135Z,38.46
2022-08-19T12:43:53.187Z,38.59
2022-08-19T12:45:26.079Z,38.69
2022-08-19T12:46:58.560Z,38.85
2022-08-19T12:48:33.218Z,38.91
2022-08-19T12:50:07.798Z,38.99
2022-08-19T12:51:39.450Z,39.00
2022-08-19T12:53:11.523Z,39.05
2022-08-19T12:54:44.590Z,38.88
2022-08-19T12:56:18.183Z,38.84
2022-08-19T12:57:52.265Z,38.85
2022-08-19T12:59:24.741Z,38.98
2022-08-19T13:00:57.100Z,39.17
2022-08-19T13:02:29.295Z,39.26
2022-08-19T13:04:01.470Z,39.35
2022-08-19T13:05:34.619Z,39.45
2022-08-19T13:07:06.405Z,39.51
2022-08-19T13:08:39.589Z,39.62
2022-08-19T13:10:12.934Z,39.68
2022-08-19T13:11:45.775Z,39.67
2022-08-19T13:13:17.874Z,39.64
2022-08-19T13:14:51.509Z,39.63
2022-08-19T13:16:23.530Z,39.62
2022-08-19T13:17:56.922Z,39.67
2022-08-19T13:19:29.750Z,39.71
2022-08-19T13:21:12.293Z,39.78
2022-08-19T13:22:45.716Z,39.69
2022-08-19T13:24:17.824Z,39.63
2022-08-19T13:25:59.788Z,39.58
2022-08-19T13:27:31.545Z,39.59
2022-08-19T13:29:22.005Z,39.50
2022-08-19T13:31:12.681Z,39.44
2022-08-19T13:33:03.603Z,39.48
2022-08-19T13:34:36.644Z,39.53
2022-08-19T13:36:09.252Z,39.57
2022-08-19T13:37:43.104Z,39.59
2022-08-19T13:39:15.571Z,39.59
2022-08-19T13:40:47.745Z,39.57
2022-08-19T13:42:20.276Z,39.48
2022-08-19T13:43:52.760Z,39.49
2022-08-19T13:45:25.804Z,39.55
2022-08-19T13:47:08.579Z,39.55
2022-08-19T13:48:40.819Z,39.53
2022-08-19T13:50:13.482Z,39.57
2022-08-19T13:51:46.709Z,39.61
2022-08-19T13:53:18.922Z,39.63
2022-08-19T13:54:51.199Z,39.65
2022-08-19T13:56:26.351Z,39.60
2022-08-19T13:57:59.261Z,39.60
2022-08-19T13:59:31.715Z,39.61
2022-08-19T14:01:03.989Z,39.48
2022-08-19T14:02:36.391Z,39.36
2022-08-19T14:04:08.355Z,39.25
2022-08-19T14:05:40.335Z,39.13
2022-08-19T14:07:12.236Z,39.12
2022-08-19T14:08:46.416Z,39.15
2022-08-19T14:10:19.311Z,39.11
2022-08-19T14:11:52.058Z,39.12
2022-08-19T14:13:24.349Z,39.13
2022-08-19T14:14:56.295Z,39.12
2022-08-19T14:16:28.580Z,39.17
2022-08-19T14:18:00.751Z,39.19
2022-08-19T14:19:33.505Z,39.22
2022-08-19T14:21:06.337Z,39.27
2022-08-19T14:22:38.780Z,39.30
2022-08-19T14:24:10.805Z,39.34
2022-08-19T14:25:43.182Z,39.39
2022-08-19T14:27:16.334Z,39.39
2022-08-19T14:28:48.121Z,39.39
2022-08-19T14:30:21.934Z,39.39
2022-08-19T14:31:53.820Z,39.41
2022-08-19T14:33:28.329Z,39.46
2022-08-19T14:35:05.272Z,39.47
2022-08-19T14:36:39.333Z,39.48
2022-08-19T14:38:15.435Z,39.46
2022-08-19T14:39:47.320Z,39.35
2022-08-19T14:41:20.672Z,39.27
2022-08-19T14:43:01.362Z,39.31
2022-08-19T14:44:34.906Z,39.34
2022-08-19T14:46:07.055Z,39.36
2022-08-19T14:47:40.816Z,39.35
2022-08-19T14:49:13.270Z,39.34
2022-08-19T14:50:45.702Z,39.38
2022-08-19T14:52:18.393Z,39.38
2022-08-19T14:53:50.169Z,39.37
2022-08-19T14:55:21.739Z,39.38
2022-08-19T14:56:53.397Z,39.38
2022-08-19T14:58:29.582Z,39.41
2022-08-19T15:00:02.174Z,39.41
2022-08-19T15:01:33.940Z,39.30
2022-08-19T15:03:06.081Z,39.20
2022-08-19T15:04:38.703Z,39.16
2022-08-19T15:06:12.746Z,39.12
2022-08-19T15:07:45.007Z,39.11
2022-08-19T15:09:16.974Z,39.16
2022-08-19T15:10:49.277Z,39.22
2022-08-19T15:12:21.978Z,39.19
2022-08-19T15:13:54.106Z,39.12
2022-08-19T15:15:25.777Z,38.98
2022-08-19T15:16:57.482Z,38.94
2022-08-19T15:18:29.147Z,38.93
2022-08-19T15:20:01.690Z,38.93
2022-08-19T15:21:33.727Z,39.00
2022-08-19T15:23:05.350Z,39.04
2022-08-19T15:24:37.042Z,38.97
2022-08-19T15:26:20.588Z,38.86
2022-08-19T15:27:53.998Z,38.81
2022-08-19T15:29:26.819Z,38.70
2022-08-19T15:30:58.514Z,38.63
2022-08-19T15:32:30.395Z,38.54
2022-08-19T15:34:02.123Z,38.43
2022-08-19T15:35:34.490Z,38.34
2022-08-19T15:37:06.502Z,38.20
2022-08-19T15:38:41.131Z,38.09
2022-08-19T15:40:15.300Z,37.98
2022-08-19T15:41:47.148Z,37.89
2022-08-19T15:43:19.330Z,37.83
2022-08-19T15:44:52.306Z,37.77
2022-08-19T15:46:26.814Z,37.77
2022-08-19T15:48:01.982Z,37.72
2022-08-19T15:49:33.757Z,37.70
2022-08-19T15:51:05.467Z,37.65
2022-08-19T15:52:37.259Z,37.53
2022-08-19T15:54:24.194Z,37.49
2022-08-19T15:55:55.969Z,37.44
2022-08-19T15:57:27.636Z,37.37
2022-08-19T15:59:18.027Z,37.27
2022-08-19T16:01:12.725Z,37.19
2022-08-19T16:03:17.021Z,37.16
2022-08-19T16:05:07.833Z,37.09
2022-08-19T16:06:40.731Z,37.02
2022-08-19T16:08:12.903Z,36.95
2022-08-19T16:09:44.604Z,36.85
2022-08-19T16:11:21.258Z,36.76
2022-08-19T16:12:53.755Z,36.67
2022-08-19T16:14:26.019Z,36.61
2022-08-19T16:15:58.302Z,36.53
2022-08-19T16:17:29.950Z,36.46
2022-08-19T16:19:02.657Z,36.35
2022-08-19T16:20:35.606Z,36.26
2022-08-19T16:22:07.471Z,36.16
2022-08-19T16:23:39.098Z,36.05
2022-08-19T16:25:10.983Z,35.91
2022-08-19T16:26:44.966Z,35.87
2022-08-19T16:28:16.879Z,35.84
2022-08-19T16:29:48.465Z,35.81
2022-08-19T16:31:20.199Z,35.77
2022-08-19T16:32:52.128Z,35.68
2022-08-19T16:34:24.902Z,35.56
2022-08-19T16:36:00.461Z,35.52
2022-08-19T16:37:41.473Z,35.39
2022-08-19T16:39:13.286Z,35.30
2022-08-19T16:40:46.764Z,35.14
2022-08-19T16:42:18.850Z,35.04
2022-08-19T16:43:52.755Z,34.97
2022-08-19T16:45:24.529Z,34.86
2022-08-19T16:46:58.661Z,34.73
2022-08-19T16:48:30.615Z,34.60
2022-08-19T16:50:02.476Z,34.49
2022-08-19T16:51:34.382Z,34.35
2022-08-19T16:53:08.701Z,34.24
2022-08-19T16:54:40.384Z,34.10
2022-08-19T16:56:15.730Z,34.02
2022-08-19T16:57:48.047Z,33.92
2022-08-19T16:59:19.955Z,33.84
2022-08-19T17:00:54.987Z,33.73
2022-08-19T17:02:29.554Z,33.61
2022-08-19T17:04:02.051Z,33.50
2022-08-19T17:05:33.818Z,33.39
2022-08-19T17:07:05.828Z,33.30
2022-08-19T17:08:37.423Z,33.22
2022-08-19T17:10:09.620Z,33.14
2022-08-19T17:11:41.280Z,33.04
2022-08-19T17:13:15.399Z,32.97
2022-08-19T17:14:47.126Z,32.93
2022-08-19T17:16:19.965Z,32.84
2022-08-19T17:17:53.375Z,32.76
2022-08-19T17:19:25.424Z,32.70
2022-08-19T17:20:57.478Z,32.65
2022-08-19T17:22:29.999Z,32.59
2022-08-19T17:24:03.144Z,32.49
2022-08-19T17:25:35.107Z,32.42
2022-08-19T17:27:07.495Z,32.34
2022-08-19T17:28:39.158Z,32.25
2022-08-19T17:30:10.874Z,32.19
2022-08-19T17:31:43.008Z,32.11
2022-08-19T17:33:15.058Z,32.03
2022-08-19T17:34:46.989Z,31.96
2022-08-19T17:36:24.697Z,31.91
2022-08-19T17:37:57.625Z,31.82
2022-08-19T17:39:29.436Z,31.77
2022-08-19T17:41:05.368Z,31.72
2022-08-19T17:42:37.085Z,31.69
2022-08-19T17:44:09.668Z,31.62
2022-08-19T17:45:41.705Z,31.50
2022-08-19T17:47:13.407Z,31.45
2022-08-19T17:48:48.449Z,31.34
2022-08-19T17:50:23.592Z,31.26
2022-08-19T17:51:55.842Z,31.19
2022-08-19T17:53:27.565Z,31.11
2022-08-19T17:54:59.514Z,31.08
2022-08-19T17:56:31.306Z,31.06
2022-08-19T17:58:05.363Z,30.98
2022-08-19T17:59:39.883Z,30.92
2022-08-19T18:01:11.933Z,30.86
2022-08-19T18:02:51.673Z,30.84
2022-08-19T18:04:24.841Z,30.80
2022-08-19T18:05:57.226Z,30.79
2022-08-19T18:07:30.523Z,30.74
2022-08-19T18:09:03.008Z,30.71
2022-08-19T18:10:35.406Z,30.67
2022-08-19T18:12:07.999Z,30.64
2022-08-19T18:13:41.029Z,30.58
2022-08-19T18:15:13.168Z,30.54
2022-08-19T18:16:46.761Z,30.52
2022-08-19T18:18:18.837Z,30.47
2022-08-19T18:19:51.310Z,30.45
2022-08-19T18:21:30.100Z,30.42
2022-08-19T18:23:45.559Z,30.38
2022-08-19T18:24:54.215Z,30.37
2022-08-19T18:26:27.529Z,30.35
2022-08-19T18:28:01.014Z,30.33
2022-08-19T18:29:34.260Z,30.33
2022-08-19T18:31:06.833Z,30.28
2022-08-19T18:32:40.041Z,30.26
2022-08-19T18:34:11.747Z,30.23
2022-08-19T18:35:48.932Z,30.18
2022-08-19T18:37:20.621Z,30.13
2022-08-19T18:39:10.970Z,30.09
2022-08-19T18:41:05.119Z,30.07
2022-08-19T18:42:55.575Z,30.02
2022-08-19T18:44:45.672Z,29.98
2022-08-19T18:46:36.910Z,29.93
2022-08-19T18:48:28.251Z,29.87
2022-08-19T18:50:06.972Z,29.83
2022-08-19T18:51:39.118Z,29.81
2022-08-19T18:53:10.828Z,29.77
2022-08-19T18:54:42.815Z,29.78
2022-08-19T18:56:15.215Z,29.79
2022-08-19T18:57:48.819Z,29.80
2022-08-19T18:59:24.368Z,29.81
2022-08-19T19:00:57.487Z,29.81
2022-08-19T19:02:29.863Z,29.80
2022-08-19T19:04:02.582Z,29.79
2022-08-19T19:05:34.850Z,29.80
2022-08-19T19:07:06.648Z,29.80
2022-08-19T19:08:41.220Z,29.80
2022-08-19T19:10:13.206Z,29.80
2022-08-19T19:11:45.894Z,29.78
2022-08-19T19:13:17.758Z,29.75
2022-08-19T19:14:50.300Z,29.71
2022-08-19T19:16:24.707Z,29.69
2022-08-19T19:17:57.323Z,29.67
2022-08-19T19:19:32.660Z,29.65
2022-08-19T19:21:04.746Z,29.64
2022-08-19T19:22:36.628Z,29.61
2022-08-19T19:24:09.181Z,29.62
2022-08-19T19:25:44.737Z,29.61
2022-08-19T19:27:23.367Z,29.61
2022-08-19T19:28:55.181Z,29.61
2022-08-19T19:30:30.997Z,29.68
2022-08-19T19:32:03.880Z,29.73
2022-08-19T19:33:35.698Z,29.74
2022-08-19T19:35:07.956Z,29.75
2022-08-19T19:36:39.705Z,29.74
2022-08-19T19:38:12.334Z,29.65
2022-08-19T19:39:45.880Z,29.59
2022-08-19T19:41:21.250Z,29.56
2022-08-19T19:42:55.444Z,29.52
2022-08-19T19:44:29.895Z,29.45
2022-08-19T19:46:02.987Z,29.39
2022-08-19T19:47:35.002Z,29.37
2022-08-19T19:49:06.893Z,29.36
2022-08-19T19:50:38.630Z,29.34
2022-08-19T19:52:13.884Z,29.34
2022-08-19T19:53:46.258Z,29.30
2022-08-19T19:55:19.259Z,29.26
2022-08-19T19:56:51.164Z,29.24
2022-08-19T19:58:28.590Z,29.24
2022-08-19T20:00:01.198Z,29.24
2022-08-19T20:01:33.654Z,29.23
2022-08-19T20:03:06.338Z,29.23
2022-08-19T20:04:38.796Z,29.22
2022-08-19T20:06:12.223Z,29.20
2022-08-19T20:08:02.427Z,29.19
2022-08-19T20:09:56.343Z,29.14
2022-08-19T20:11:36.709Z,29.14
2022-08-19T20:13:08.660Z,29.11
2022-08-19T20:14:41.329Z,29.08
2022-08-19T20:16:13.488Z,29.04
2022-08-19T20:17:46.646Z,29.00
2022-08-19T20:19:18.999Z,28.98
2022-08-19T20:20:51.068Z,28.95